createdAt,value
2019-01-21T00:01:06.302Z,205.37
2019-01-21T00:03:36.504Z,213.73
2019-01-21T00:06:06.582Z,214.57
2019-01-21T00:08:36.916Z,203.90
2019-01-21T00:11:06.747Z,212.40
2019-01-21T00:13:36.956Z,213.00
2019-01-21T00:16:06.557Z,210.43
2019-01-21T00:18:36.663Z,198.17
2019-01-21T00:21:06.302Z,197.77
2019-01-21T00:23:36.818Z,222.23
2019-01-21T00:26:06.779Z,221.07
2019-01-21T00:28:36.547Z,213.57
2019-01-21T00:31:06.333Z,215.23
2019-01-21T00:33:36.048Z,209.47
2019-01-21T00:36:06.412Z,216.50
2019-01-21T00:38:37.819Z,211.97
2019-01-21T00:41:15.970Z,202.83
2019-01-21T00:43:46.326Z,203.43
2019-01-21T00:46:16.280Z,216.97
2019-01-21T00:48:46.819Z,210.37
2019-01-21T00:51:16.884Z,301.80
2019-01-21T00:56:25.015Z,355.60
2019-01-21T00:58:54.984Z,298.63
2019-01-21T01:01:24.773Z,289.73
2019-01-21T01:03:55.028Z,257.73
2019-01-21T01:06:25.358Z,294.70
2019-01-21T01:08:55.327Z,251.20
2019-01-21T01:11:25.514Z,234.17
2019-01-21T01:13:55.289Z,238.50
2019-01-21T01:16:25.687Z,232.73
2019-01-21T01:18:55.758Z,240.63
2019-01-21T01:21:25.831Z,246.93
2019-01-21T01:23:55.936Z,253.80
2019-01-21T01:26:26.086Z,246.73
2019-01-21T01:28:56.185Z,233.67
2019-01-21T01:31:26.476Z,234.50
2019-01-21T01:33:56.439Z,218.30
2019-01-21T01:36:26.771Z,212.80
2019-01-21T01:38:56.694Z,226.10
2019-01-21T01:41:27.103Z,231.13
2019-01-21T01:43:56.575Z,219.23
2019-01-21T01:46:26.527Z,224.73
2019-01-21T01:48:56.290Z,225.13
2019-01-21T01:51:26.092Z,222.33
2019-01-21T01:53:56.129Z,215.67
2019-01-21T01:56:26.268Z,225.40
2019-01-21T01:58:56.566Z,251.20
2019-01-21T02:01:27.671Z,238.23
2019-01-21T02:03:57.755Z,219.07
2019-01-21T02:06:27.650Z,217.83
2019-01-21T02:08:57.910Z,228.53
2019-01-21T02:11:28.027Z,232.90
2019-01-21T02:13:57.812Z,209.93
2019-01-21T02:16:27.929Z,224.43
2019-01-21T02:18:57.748Z,224.33
2019-01-21T02:21:28.081Z,222.20
2019-01-21T02:23:57.578Z,249.77
2019-01-21T02:26:27.891Z,247.03
2019-01-21T02:28:58.281Z,230.70
2019-01-21T02:31:31.163Z,228.20
2019-01-21T02:34:02.973Z,234.67
2019-01-21T02:36:33.077Z,253.30
2019-01-21T02:39:04.120Z,244.50
2019-01-21T02:41:34.057Z,221.20
2019-01-21T02:44:04.156Z,238.43
2019-01-21T02:46:33.539Z,278.03
2019-01-21T02:49:03.247Z,299.20
2019-01-21T02:51:33.171Z,282.93
2019-01-21T02:54:02.931Z,278.63
2019-01-21T02:56:32.535Z,307.77
2019-01-21T02:59:02.320Z,324.60
2019-01-21T03:01:40.013Z,329.30
2019-01-21T03:04:09.995Z,323.63
2019-01-21T03:06:39.567Z,335.87
2019-01-21T03:09:09.415Z,331.23
2019-01-21T03:11:39.523Z,328.10
2019-01-21T03:14:08.793Z,336.00
2019-01-21T03:16:38.107Z,343.37
2019-01-21T03:19:07.442Z,342.00
2019-01-21T03:21:36.650Z,337.07
2019-01-21T03:24:06.367Z,325.17
2019-01-21T03:26:35.541Z,329.37
2019-01-21T03:29:04.617Z,316.50
2019-01-21T03:31:33.809Z,319.80
2019-01-21T03:34:03.178Z,314.17
2019-01-21T03:36:32.756Z,314.53
2019-01-21T03:47:07.998Z,288.50
2019-01-21T03:49:37.530Z,294.23
2019-01-21T03:52:06.719Z,282.53
2019-01-21T03:54:36.250Z,283.07
2019-01-21T04:10:39.017Z,264.10
2019-01-21T04:43:01.506Z,192.73
2019-01-21T04:45:42.737Z,198.43
2019-01-21T04:48:24.029Z,196.17
2019-01-21T04:51:04.594Z,195.03
2019-01-21T04:53:44.686Z,197.17
2019-01-21T04:56:25.691Z,194.70
2019-01-21T04:59:06.655Z,188.97
2019-01-21T05:01:47.288Z,174.77
2019-01-21T05:04:28.507Z,170.37
2019-01-21T05:07:08.904Z,189.63
2019-01-21T05:09:50.106Z,177.33
2019-01-21T05:12:30.459Z,172.93
2019-01-21T05:15:11.118Z,137.13
2019-01-21T05:17:52.022Z,169.17
2019-01-21T05:20:33.294Z,161.47
2019-01-21T05:23:14.609Z,181.67
2019-01-21T05:25:55.768Z,176.63
2019-01-21T05:28:36.925Z,163.00
2019-01-21T05:31:17.466Z,170.63
2019-01-21T05:33:57.732Z,180.63
2019-01-21T05:36:38.078Z,202.60
2019-01-21T05:39:19.085Z,197.23
2019-01-21T05:41:59.445Z,203.83
2019-01-21T05:44:40.097Z,213.63
2019-01-21T05:47:20.491Z,202.73
2019-01-21T05:50:01.360Z,203.60
2019-01-21T05:52:42.065Z,202.77
2019-01-21T05:55:22.669Z,197.30
2019-01-21T05:58:03.022Z,187.80
2019-01-21T06:00:43.793Z,182.70
2019-01-21T06:03:23.941Z,183.67
2019-01-21T06:06:04.787Z,185.77
2019-01-21T06:08:45.278Z,189.43
2019-01-21T06:11:25.861Z,194.20
2019-01-21T06:14:06.663Z,184.67
2019-01-21T06:16:47.530Z,172.63
2019-01-21T06:19:28.388Z,151.90
2019-01-21T06:22:09.731Z,159.13
2019-01-21T06:24:50.338Z,182.57
2019-01-21T06:27:30.753Z,179.23
2019-01-21T06:30:11.934Z,180.63
2019-01-21T06:32:53.056Z,185.67
2019-01-21T06:35:34.482Z,177.70
2019-01-21T06:38:15.332Z,174.37
2019-01-21T06:40:56.273Z,174.60
2019-01-21T06:43:37.267Z,172.83
2019-01-21T06:46:18.254Z,181.90
2019-01-21T06:49:04.688Z,187.37
2019-01-21T06:51:40.894Z,208.97
2019-01-21T06:54:22.149Z,208.20
2019-01-21T06:57:03.312Z,212.20
2019-01-21T06:59:44.460Z,203.47
2019-01-21T07:02:25.291Z,216.00
2019-01-21T07:05:06.679Z,219.03
2019-01-21T07:07:47.561Z,218.67
2019-01-21T07:10:28.496Z,219.17
2019-01-21T07:13:09.276Z,215.07
2019-01-21T07:15:50.791Z,205.37
2019-01-21T07:18:31.660Z,209.70
2019-01-21T07:21:12.060Z,221.73
2019-01-21T07:23:53.097Z,216.83
2019-01-21T07:26:34.253Z,201.87
2019-01-21T07:29:14.711Z,206.80
2019-01-21T07:31:55.695Z,187.17
2019-01-21T07:34:36.890Z,182.47
2019-01-21T07:37:17.357Z,181.70
2019-01-21T07:39:57.970Z,170.53
2019-01-21T07:42:38.859Z,159.63
2019-01-21T07:45:19.421Z,154.77
2019-01-21T07:48:00.061Z,153.67
2019-01-21T07:50:40.724Z,147.80
2019-01-21T07:53:21.139Z,147.67
2019-01-21T07:56:01.565Z,155.77
2019-01-21T07:58:42.912Z,140.93
2019-01-21T08:01:23.921Z,143.47
2019-01-21T08:04:04.962Z,135.83
2019-01-21T08:06:46.060Z,155.03
2019-01-21T08:09:27.091Z,139.43
2019-01-21T08:12:07.683Z,136.83
2019-01-21T08:14:49.031Z,136.80
2019-01-21T08:17:30.089Z,143.03
2019-01-21T08:20:11.286Z,134.60
2019-01-21T08:22:52.519Z,137.27
2019-01-21T08:25:33.090Z,133.37
2019-01-21T08:28:14.516Z,128.43
2019-01-21T08:30:55.587Z,129.13
2019-01-21T08:33:36.206Z,120.63
2019-01-21T08:36:17.091Z,116.40
2019-01-21T08:38:57.750Z,110.97
2019-01-21T08:41:38.357Z,108.40
2019-01-21T08:44:19.046Z,106.70
2019-01-21T08:47:00.183Z,107.60
2019-01-21T08:49:41.541Z,110.07
2019-01-21T08:52:22.427Z,111.53
2019-01-21T08:55:02.993Z,111.13
2019-01-21T08:57:43.706Z,117.70
2019-01-21T09:00:24.768Z,116.33
2019-01-21T09:03:05.920Z,123.77
2019-01-21T09:05:46.922Z,118.20
2019-01-21T09:08:28.596Z,114.47
2019-01-21T09:11:09.072Z,116.67
2019-01-21T09:13:50.091Z,118.47
2019-01-21T09:16:30.750Z,119.23
2019-01-21T09:19:12.030Z,114.83
2019-01-21T09:21:52.424Z,108.63
2019-01-21T09:24:33.179Z,111.40
2019-01-21T09:27:14.051Z,109.00
2019-01-21T09:29:54.895Z,109.50
2019-01-21T09:32:35.843Z,106.90
2019-01-21T09:35:16.502Z,103.77
2019-01-21T09:37:57.541Z,110.37
2019-01-21T09:40:38.411Z,106.03
2019-01-21T09:43:19.406Z,104.77
2019-01-21T09:46:00.058Z,102.57
2019-01-21T09:48:40.644Z,100.10
2019-01-21T09:51:21.938Z,102.10
2019-01-21T09:54:03.544Z,100.03
2019-01-21T09:56:44.517Z,96.87
2019-01-21T09:59:25.445Z,96.97
2019-01-21T10:02:06.243Z,92.27
2019-01-21T10:04:47.137Z,91.93
2019-01-21T10:07:28.333Z,87.80
2019-01-21T10:10:09.625Z,83.37
2019-01-21T10:12:50.580Z,84.93
2019-01-21T10:15:30.718Z,80.77
2019-01-21T10:18:11.965Z,75.03
2019-01-21T10:20:52.778Z,76.37
2019-01-21T10:23:33.396Z,75.03
2019-01-21T10:26:13.867Z,75.60
2019-01-21T10:28:55.322Z,71.77
2019-01-21T10:31:36.319Z,73.07
2019-01-21T10:34:17.473Z,74.73
2019-01-21T10:36:58.232Z,71.03
2019-01-21T10:39:38.862Z,68.53
2019-01-21T10:42:19.590Z,70.33
2019-01-21T10:44:59.918Z,70.13
2019-01-21T10:47:40.465Z,72.67
2019-01-21T10:50:21.954Z,71.80
2019-01-21T10:53:02.822Z,71.27
2019-01-21T10:55:44.022Z,72.03
2019-01-21T10:58:24.584Z,72.80
2019-01-21T11:01:05.371Z,74.07
2019-01-21T11:03:46.137Z,74.13
2019-01-21T11:06:26.839Z,73.60
2019-01-21T11:09:08.010Z,70.50
2019-01-21T11:11:53.984Z,71.77
2019-01-21T11:14:29.939Z,72.87
2019-01-21T11:17:11.097Z,73.93
2019-01-21T11:19:52.086Z,74.13
2019-01-21T11:22:33.141Z,72.60
2019-01-21T11:25:14.301Z,72.67
2019-01-21T11:27:55.461Z,76.37
2019-01-21T11:30:36.209Z,76.53
2019-01-21T11:33:17.264Z,73.47
2019-01-21T11:35:58.391Z,79.50
2019-01-21T11:38:38.744Z,77.10
2019-01-21T11:41:19.675Z,77.43
2019-01-21T11:44:00.639Z,90.10
2019-01-21T11:46:41.558Z,92.80
2019-01-21T11:49:22.537Z,91.03
2019-01-21T11:52:03.256Z,87.60
2019-01-21T11:54:44.035Z,97.00
2019-01-21T11:57:25.649Z,117.10
2019-01-21T12:00:07.353Z,100.60
2019-01-21T12:02:48.377Z,109.57
2019-01-21T12:05:29.145Z,120.00
2019-01-21T12:08:10.272Z,181.70
2019-01-21T12:10:51.105Z,168.30
2019-01-21T12:13:31.868Z,148.97
2019-01-21T12:16:12.652Z,163.70
2019-01-21T12:18:54.078Z,142.70
2019-01-21T12:21:35.393Z,139.40
2019-01-21T12:24:16.067Z,143.20
2019-01-21T12:26:57.293Z,173.60
2019-01-21T12:29:38.008Z,228.50
2019-01-21T12:32:18.889Z,230.93
2019-01-21T12:34:59.862Z,189.20
2019-01-21T12:37:40.441Z,208.70
2019-01-21T12:40:21.722Z,198.60
2019-01-21T12:43:02.588Z,169.30
2019-01-21T12:45:43.758Z,164.60
2019-01-21T12:48:24.907Z,156.73
2019-01-21T12:51:05.414Z,151.03
2019-01-21T12:53:46.371Z,141.83
2019-01-21T12:56:26.998Z,131.10
2019-01-21T12:59:07.894Z,152.53
2019-01-21T13:01:48.574Z,141.53
2019-01-21T13:04:29.570Z,163.30
2019-01-21T13:07:10.512Z,188.57
2019-01-21T13:09:51.395Z,189.70
2019-01-21T13:12:32.192Z,204.13
2019-01-21T13:15:12.942Z,218.47
2019-01-21T13:17:54.343Z,169.83
2019-01-21T13:20:34.789Z,170.53
2019-01-21T13:23:15.214Z,166.37
2019-01-21T13:25:56.713Z,168.80
2019-01-21T13:28:38.209Z,176.57
2019-01-21T13:31:18.480Z,184.43
2019-01-21T13:33:58.837Z,194.03
2019-01-21T13:36:39.211Z,200.37
2019-01-21T13:39:19.679Z,201.47
2019-01-21T13:42:00.305Z,207.93
2019-01-21T13:44:42.003Z,244.83
2019-01-21T13:47:22.599Z,262.87
2019-01-21T13:50:03.273Z,286.13
2019-01-21T13:52:44.119Z,247.60
2019-01-21T13:55:25.981Z,237.10
2019-01-21T13:58:06.847Z,244.33
2019-01-21T14:00:47.498Z,234.30
2019-01-21T14:03:28.536Z,241.53
2019-01-21T14:06:08.918Z,243.67
2019-01-21T14:08:49.760Z,218.30
2019-01-21T14:11:30.096Z,225.20
2019-01-21T14:14:10.785Z,210.63
2019-01-21T14:16:51.535Z,207.23
2019-01-21T14:19:32.301Z,216.67
2019-01-21T14:22:12.776Z,225.73
2019-01-21T14:24:53.753Z,211.60
2019-01-21T14:27:37.318Z,203.60
2019-01-21T14:30:18.109Z,201.17
2019-01-21T14:32:58.243Z,195.87
2019-01-21T14:35:39.039Z,196.53
2019-01-21T14:38:20.041Z,198.23
2019-01-21T14:41:00.626Z,200.97
2019-01-21T14:43:41.240Z,194.40
2019-01-21T14:46:22.177Z,196.53
2019-01-21T14:49:04.745Z,197.40
2019-01-21T14:51:44.922Z,199.20
2019-01-21T14:54:25.137Z,206.73
2019-01-21T14:57:05.765Z,210.67
2019-01-21T14:59:46.905Z,201.97
2019-01-21T15:02:27.379Z,192.77
2019-01-21T15:05:07.771Z,190.90
2019-01-21T15:07:48.686Z,288.23
2019-01-21T15:10:29.388Z,219.07
2019-01-21T15:13:09.781Z,208.10
2019-01-21T15:15:50.601Z,219.57
2019-01-21T15:18:30.578Z,218.17
2019-01-21T15:21:11.095Z,233.03
2019-01-21T15:23:51.826Z,233.97
2019-01-21T15:26:32.765Z,236.47
2019-01-21T15:29:15.910Z,231.17
2019-01-21T15:31:57.775Z,239.20
2019-01-21T15:34:38.768Z,242.17
2019-01-21T15:37:19.245Z,242.97
2019-01-21T15:40:00.311Z,527.37
2019-01-21T15:42:40.781Z,353.07
2019-01-21T15:47:58.806Z,282.30
2019-01-21T15:50:38.678Z,260.73
2019-01-21T15:53:19.334Z,254.33
2019-01-21T15:56:00.091Z,252.80
2019-01-21T15:58:40.788Z,254.20
2019-01-21T16:01:21.173Z,256.63
2019-01-21T16:04:01.596Z,264.37
2019-01-21T16:06:42.047Z,262.70
2019-01-21T16:09:22.480Z,271.63
2019-01-21T16:12:02.587Z,269.67
2019-01-21T16:14:43.017Z,272.30
2019-01-21T16:17:23.385Z,264.10
2019-01-21T16:20:04.267Z,263.80
2019-01-21T16:22:44.828Z,260.37
2019-01-21T16:25:25.216Z,258.10
2019-01-21T16:28:05.753Z,256.03
2019-01-21T16:30:46.073Z,263.37
2019-01-21T16:33:26.450Z,260.67
2019-01-21T16:36:07.306Z,273.43
2019-01-21T16:38:47.779Z,269.50
2019-01-21T16:41:28.967Z,272.47
2019-01-21T16:44:08.944Z,268.57
2019-01-21T16:46:49.932Z,268.53
2019-01-21T16:49:30.353Z,272.60
2019-01-21T16:52:10.824Z,271.47
2019-01-21T16:54:51.389Z,269.83
2019-01-21T16:57:32.254Z,270.23
2019-01-21T17:00:12.603Z,291.73
2019-01-21T17:02:53.604Z,306.80
2019-01-21T17:05:34.557Z,300.47
2019-01-21T17:08:15.854Z,294.17
2019-01-21T17:10:56.988Z,289.33
2019-01-21T17:13:38.066Z,283.60
2019-01-21T17:16:19.347Z,290.67
2019-01-21T17:19:00.657Z,285.87
2019-01-21T17:21:41.413Z,273.80
2019-01-21T17:24:22.536Z,262.63
2019-01-21T17:27:02.999Z,267.23
2019-01-21T17:29:43.378Z,268.07
2019-01-21T17:32:23.896Z,259.37
2019-01-21T17:35:05.354Z,261.80
2019-01-21T17:37:46.281Z,249.67
2019-01-21T17:40:26.973Z,248.13
2019-01-21T17:43:08.162Z,246.83
2019-01-21T17:45:49.013Z,249.73
2019-01-21T17:48:29.814Z,246.80
2019-01-21T17:53:55.257Z,241.60
2019-01-21T17:56:36.500Z,235.67
2019-01-21T17:59:18.476Z,231.43
2019-01-21T18:01:59.108Z,228.53
2019-01-21T18:04:39.315Z,232.77
2019-01-21T18:07:20.315Z,233.90
2019-01-21T18:10:02.848Z,228.80
2019-01-21T18:12:43.208Z,231.33
2019-01-21T18:15:23.968Z,229.40
2019-01-21T18:18:04.448Z,232.23
2019-01-21T18:20:45.401Z,247.13
2019-01-21T18:23:26.297Z,245.73
2019-01-21T18:26:07.362Z,255.73
2019-01-21T18:28:47.807Z,252.27
2019-01-21T18:31:28.603Z,264.47
2019-01-21T18:34:08.958Z,261.17
2019-01-21T18:36:49.616Z,286.67
2019-01-21T18:39:30.001Z,283.70
2019-01-21T18:42:11.647Z,275.93
2019-01-21T18:44:52.835Z,296.40
2019-01-21T18:47:33.709Z,281.77
2019-01-21T18:50:14.084Z,270.40
2019-01-21T18:52:56.110Z,269.47
2019-01-21T18:55:36.737Z,270.70
2019-01-21T18:58:17.588Z,284.23
2019-01-21T19:00:58.236Z,275.50
2019-01-21T19:03:38.715Z,275.93
2019-01-21T19:06:19.596Z,264.03
2019-01-21T19:09:00.228Z,270.67
2019-01-21T19:11:40.849Z,276.67
2019-01-21T19:14:21.505Z,259.67
2019-01-21T19:17:02.178Z,245.90
2019-01-21T19:19:43.060Z,247.53
2019-01-21T19:22:24.331Z,237.33
2019-01-21T19:25:05.632Z,243.57
2019-01-21T19:27:46.460Z,245.20
2019-01-21T19:30:27.483Z,242.50
2019-01-21T19:33:07.702Z,254.37
2019-01-21T19:35:48.339Z,258.97
2019-01-21T19:38:28.953Z,252.40
2019-01-21T19:41:09.511Z,242.80
2019-01-21T19:43:50.720Z,244.43
2019-01-21T19:46:31.364Z,245.37
2019-01-21T19:49:11.919Z,249.30
2019-01-21T19:51:52.984Z,248.90
2019-01-21T19:54:33.877Z,240.40
2019-01-21T19:57:14.283Z,247.63
2019-01-21T19:59:54.696Z,260.00
2019-01-21T20:02:35.435Z,259.40
2019-01-21T20:05:16.160Z,249.70
2019-01-21T20:07:57.178Z,238.13
2019-01-21T20:10:37.894Z,240.70
2019-01-21T20:13:18.721Z,232.73
2019-01-21T20:15:59.178Z,227.47
2019-01-21T20:18:40.051Z,232.83
2019-01-21T20:21:20.505Z,232.73
2019-01-21T20:24:01.107Z,230.17
2019-01-21T20:26:41.762Z,229.03
2019-01-21T20:29:22.875Z,235.60
2019-01-21T20:32:03.851Z,218.37
2019-01-21T20:34:44.650Z,222.50
2019-01-21T20:37:25.203Z,229.40
2019-01-21T20:40:06.453Z,221.47
2019-01-21T20:42:47.379Z,218.47
2019-01-21T20:45:28.059Z,229.40
2019-01-21T20:48:08.824Z,225.00
2019-01-21T20:50:49.445Z,224.30
2019-01-21T20:53:30.646Z,236.40
2019-01-21T20:56:12.165Z,235.73
2019-01-21T20:58:53.163Z,238.23
2019-01-21T21:01:34.093Z,223.50
2019-01-21T21:04:15.056Z,229.27
2019-01-21T21:06:56.004Z,214.80
2019-01-21T21:09:36.957Z,214.40
2019-01-21T21:12:17.976Z,218.90
2019-01-21T21:14:58.332Z,233.60
2019-01-21T21:17:39.312Z,234.00
2019-01-21T21:20:20.127Z,230.73
2019-01-21T21:23:01.112Z,216.93
2019-01-21T21:25:41.917Z,216.17
2019-01-21T21:28:22.980Z,210.77
2019-01-21T21:31:04.308Z,213.67
2019-01-21T21:33:44.943Z,213.50
2019-01-21T21:36:25.592Z,222.90
2019-01-21T21:42:17.365Z,222.90
2019-01-21T21:44:58.107Z,221.07
2019-01-21T21:47:39.491Z,210.60
2019-01-21T21:50:20.600Z,210.70
2019-01-21T21:53:01.547Z,214.20
2019-01-21T21:55:42.577Z,210.00
2019-01-21T21:58:23.771Z,219.27
2019-01-21T22:01:04.692Z,216.83
2019-01-21T22:03:45.457Z,218.83
2019-01-21T22:06:27.089Z,213.30
2019-01-21T22:09:08.024Z,219.33
2019-01-21T22:11:48.848Z,215.83
2019-01-21T22:14:29.295Z,215.37
2019-01-21T22:17:10.100Z,214.80
2019-01-21T22:19:51.679Z,208.87
2019-01-21T22:22:34.811Z,213.13
2019-01-21T22:25:13.634Z,216.67
2019-01-21T22:27:54.262Z,226.50
2019-01-21T22:30:35.855Z,215.40
2019-01-21T22:33:16.145Z,213.10
2019-01-21T22:35:57.021Z,209.77
2019-01-21T22:38:38.301Z,208.67
2019-01-21T22:41:19.001Z,210.23
2019-01-21T22:43:59.700Z,200.70
2019-01-21T22:46:40.661Z,201.10
2019-01-21T22:49:21.290Z,200.53
2019-01-21T22:52:02.564Z,199.97
2019-01-21T22:54:43.518Z,189.97
2019-01-21T22:57:24.177Z,203.20
2019-01-21T23:00:05.170Z,200.57
2019-01-21T23:02:46.137Z,198.53
2019-01-21T23:05:27.420Z,212.07
2019-01-21T23:08:07.890Z,196.87
2019-01-21T23:10:49.380Z,200.53
2019-01-21T23:13:30.241Z,198.00
2019-01-21T23:16:11.300Z,189.77
2019-01-21T23:18:52.490Z,194.90
2019-01-21T23:21:33.456Z,192.30
2019-01-21T23:24:16.605Z,198.90
2019-01-21T23:26:56.000Z,198.33
2019-01-21T23:29:36.994Z,195.07
2019-01-21T23:32:17.770Z,207.17
2019-01-21T23:34:58.746Z,209.30
2019-01-21T23:37:40.161Z,192.17
2019-01-21T23:40:21.760Z,187.07
2019-01-21T23:43:02.778Z,192.93
2019-01-21T23:45:43.461Z,206.33
2019-01-21T23:48:24.325Z,212.30
2019-01-21T23:51:04.677Z,213.30
2019-01-21T23:53:45.777Z,209.23
2019-01-21T23:56:26.883Z,208.00
2019-01-21T23:59:08.189Z,204.67
